createdAt,value
2022-10-25T15:36:30.842Z,29.6
2022-10-25T15:42:19.308Z,29.4
2022-10-25T15:47:41.719Z,29.3
2022-10-25T15:53:06.030Z,29.3
2022-10-25T15:58:13.348Z,29.1
2022-10-25T16:03:38.668Z,29.1
2022-10-25T16:09:01.150Z,29
2022-10-25T16:14:23.632Z,28.9
2022-10-25T16:19:52.696Z,28.8
2022-10-25T16:25:14.050Z,28.8
2022-10-25T16:30:24.051Z,28.7
2022-10-25T16:35:32.739Z,28.7
2022-10-25T16:40:40.541Z,28.6
2022-10-25T16:45:51.557Z,28.6
2022-10-25T16:50:47.226Z,28.6
2022-10-25T16:55:53.503Z,28.5
2022-10-25T17:01:01.122Z,28.5
2022-10-25T17:06:16.518Z,28.4
2022-10-25T17:11:35.546Z,28.4
2022-10-25T17:17:00.797Z,28.4
2022-10-25T17:21:56.679Z,28.4
2022-10-25T17:27:19.081Z,28.4
2022-10-25T17:32:28.408Z,28.4
2022-10-25T17:37:34.783Z,28.4
2022-10-25T17:42:57.391Z,28.4
2022-10-25T17:48:09.165Z,28.4
2022-10-25T17:53:31.334Z,28.4
2022-10-25T17:58:27.397Z,28.4
2022-10-25T18:03:40.248Z,28.4
2022-10-25T18:09:06.001Z,28.4
2022-10-25T18:14:29.198Z,28.4
2022-10-25T18:19:53.846Z,28.4
2022-10-25T18:25:02.475Z,28.4
2022-10-25T18:30:10.867Z,28.5
2022-10-25T18:35:19.391Z,28.6
2022-10-25T18:40:11.575Z,28.6
2022-10-25T18:45:08.109Z,28.6
2022-10-25T18:50:16.616Z,28.5
2022-10-25T18:55:25.969Z,28.5
2022-10-25T19:00:37.983Z,28.4
2022-10-25T19:06:05.078Z,28.4
2022-10-25T19:11:29.532Z,28.4
2022-10-25T19:16:41.810Z,28.4
2022-10-25T19:21:53.297Z,28.3
2022-10-25T19:26:50.227Z,28.3
2022-10-25T19:32:14.181Z,28.3
2022-10-25T19:36:50.610Z,28.3
2022-10-25T19:42:17.579Z,28.3
